Gonzalez, Florida
Current Conditions -  °F | °C
As of 6:53 AM on Saturday 25 Oct 2014 (Local Time) from KPNS Reporting Station
Clear Clear  
Wind Chill: 54°   Ceiling: Unl
Heat Index: 54°   Visibility: 10mi
Dew Point: 45°   Wind: 8mph
Humidity: 72%   Direction: 350°N
Pressure: 30.07"   Gusts: NA
Location:  30.58°N, 87.29°W
Report Text: KPNS 251153Z 35007KT 10SM CLR 12/07 A3007 RMK AO2 SLP186 T01220072 10150 20122 53013
Loading
Personal Weather Stations






























Interactive Weather Map
Tropical Storm Tracking
New forecast layout! Learn more

10-Day Weather Forecast

Advertisements
Track Severe Weather on mobile